Time;durP1;ratioP1;P1;durP2;ratioP2;P2;SDS_P1;SDS_P2;PMS_P1;PMS_P2;Temp;Humidity;BMP_temperature;BMP_pressure;BME280_temperature;BME280_humidity;BME280_pressure;Samples;Min_cycle;Max_cycle;Signal;HPM_P1;HPM_P2
2021/11/07 00:04:27;;;;;;;1.98;1.10;;;10.10;99.90;;;;;;5066411;28;20714;-68
2021/11/07 00:07:10;;;;;;;1.65;1.00;;;10.00;99.90;;;;;;5102456;28;20226;-69
2021/11/07 00:09:46;;;;;;;3.60;1.40;;;9.90;99.90;;;;;;5100359;28;20218;-68
2021/11/07 00:12:20;;;;;;;2.97;1.40;;;9.90;99.90;;;;;;5108245;28;20631;-70
2021/11/07 00:14:52;;;;;;;2.95;1.27;;;9.90;99.90;;;;;;5102447;28;20287;-70
2021/11/07 00:17:28;;;;;;;1.48;1.25;;;9.90;99.90;;;;;;5112262;28;20247;-70
2021/11/07 00:20:06;;;;;;;5.05;1.40;;;9.80;99.90;;;;;;5101973;28;20298;-70
2021/11/07 00:22:47;;;;;;;1.65;1.30;;;9.70;99.90;;;;;;5106323;28;20212;-68
2021/11/07 00:25:23;;;;;;;5.70;1.85;;;9.70;99.90;;;;;;5107683;28;20657;-69
2021/11/07 00:27:57;;;;;;;4.65;1.50;;;9.70;99.90;;;;;;5110282;28;20242;-69
2021/11/07 00:30:37;;;;;;;23.98;3.65;;;9.50;99.90;;;;;;5106050;28;20220;-69
2021/11/07 00:33:20;;;;;;;1.30;0.60;;;8.50;99.90;;;;;;5099983;28;20303;-69
2021/11/07 00:36:11;;;;;;;1.17;0.65;;;7.90;99.90;;;;;;5102164;28;20220;-69
2021/11/07 00:38:48;;;;;;;0.93;0.70;;;7.50;99.90;;;;;;5094124;28;20216;-69
2021/11/07 00:41:29;;;;;;;1.05;0.98;;;7.40;99.90;;;;;;5097836;28;20215;-70
2021/11/07 00:44:04;;;;;;;1.90;1.50;;;7.30;99.90;;;;;;5091475;28;20307;-71
2021/11/07 00:46:41;;;;;;;1.42;1.25;;;7.30;99.90;;;;;;5092275;28;20273;-70
2021/11/07 00:49:15;;;;;;;1.63;1.40;;;7.20;99.90;;;;;;5109973;28;20301;-70
2021/11/07 00:51:59;;;;;;;0.82;0.82;;;7.20;99.90;;;;;;5103610;28;20561;-70
2021/11/07 00:54:42;;;;;;;1.80;1.25;;;7.20;99.90;;;;;;5100195;28;20204;-70
2021/11/07 00:57:20;;;;;;;0.63;0.63;;;7.20;99.90;;;;;;5090468;28;20706;-70
2021/11/07 00:59:57;;;;;;;3.28;1.10;;;7.00;99.90;;;;;;5100065;28;20273;-70
2021/11/07 01:02:31;;;;;;;1.80;0.82;;;6.90;99.90;;;;;;5096410;28;20315;-70
2021/11/07 01:05:06;;;;;;;0.93;0.88;;;6.80;99.90;;;;;;5090061;28;20315;-70
2021/11/07 01:07:39;;;;;;;0.95;0.70;;;6.80;99.90;;;;;;5099668;28;20641;-70
2021/11/07 01:10:10;;;;;;;0.60;0.50;;;6.80;99.90;;;;;;5103168;28;20251;-70
2021/11/07 01:12:42;;;;;;;1.95;0.77;;;6.80;99.90;;;;;;5111387;28;20212;-70
2021/11/07 01:15:13;;;;;;;2.58;1.33;;;6.90;99.90;;;;;;5101977;28;20241;-69
2021/11/07 01:17:44;;;;;;;2.15;0.90;;;6.90;99.90;;;;;;5094309;28;20212;-69
2021/11/07 01:20:17;;;;;;;0.90;0.75;;;6.90;99.90;;;;;;5107350;28;20307;-69
2021/11/07 01:22:56;;;;;;;1.13;0.90;;;6.90;99.90;;;;;;5099637;28;20674;-69
2021/11/07 01:25:31;;;;;;;1.95;1.27;;;6.80;99.90;;;;;;5091028;28;20306;-68
2021/11/07 01:28:03;;;;;;;1.70;1.60;;;6.80;99.90;;;;;;5102596;28;20247;-68
2021/11/07 01:30:39;;;;;;;2.80;1.90;;;6.70;99.90;;;;;;5094039;28;20239;-68
2021/11/07 01:33:14;;;;;;;3.25;2.95;;;6.70;99.90;;;;;;5097402;28;20630;-68
2021/11/07 01:35:50;;;;;;;1.83;1.67;;;6.70;99.90;;;;;;5108872;28;20269;-68
2021/11/07 01:38:26;;;;;;;2.67;1.30;;;6.80;99.90;;;;;;5095808;28;20250;-68
2021/11/07 01:41:04;;;;;;;3.70;2.40;;;6.80;99.90;;;;;;5099596;28;20298;-68
2021/11/07 01:43:35;;;;;;;2.05;1.92;;;6.80;99.90;;;;;;5097010;28;20354;-68
2021/11/07 01:46:12;;;;;;;2.30;2.10;;;6.80;99.90;;;;;;5099485;28;20307;-68
2021/11/07 01:48:46;;;;;;;1.95;1.85;;;6.80;99.90;;;;;;5096826;28;20211;-68
2021/11/07 01:51:17;;;;;;;1.90;1.80;;;6.70;99.90;;;;;;5108526;28;20258;-68
2021/11/07 01:53:52;;;;;;;1.70;1.60;;;6.70;99.90;;;;;;5109345;28;20215;-68
2021/11/07 01:56:24;;;;;;;2.10;1.90;;;6.80;99.90;;;;;;5097469;28;20223;-68
2021/11/07 01:58:55;;;;;;;2.00;1.80;;;6.80;99.90;;;;;;5107563;28;20276;-68
2021/11/07 02:01:26;;;;;;;2.00;1.85;;;6.80;99.90;;;;;;5103316;28;20314;-68
2021/11/07 02:03:59;;;;;;;4.00;2.30;;;6.80;99.90;;;;;;5098269;28;20293;-68
2021/11/07 02:06:30;;;;;;;2.80;2.47;;;6.80;99.90;;;;;;5103917;28;20621;-67
2021/11/07 02:09:02;;;;;;;4.70;2.80;;;6.70;99.90;;;;;;5105855;28;20297;-68
2021/11/07 02:11:33;;;;;;;2.05;1.85;;;6.70;99.90;;;;;;5097474;28;20244;-68
2021/11/07 02:14:04;;;;;;;1.90;1.80;;;6.80;99.90;;;;;;5098876;28;20240;-68
2021/11/07 02:16:35;;;;;;;1.35;1.25;;;6.80;99.90;;;;;;5088877;28;20209;-67
2021/11/07 02:19:07;;;;;;;2.42;2.22;;;6.80;99.90;;;;;;5100023;28;20699;-67
2021/11/07 02:21:39;;;;;;;1.83;1.73;;;6.80;99.90;;;;;;5106460;28;20204;-69
2021/11/07 02:24:14;;;;;;;1.85;1.75;;;6.80;99.90;;;;;;5100278;28;20227;-68
2021/11/07 02:26:45;;;;;;;2.10;2.00;;;6.70;99.90;;;;;;5100218;28;20291;-68
2021/11/07 02:29:17;;;;;;;2.00;1.83;;;6.70;99.90;;;;;;5098798;28;20311;-68
2021/11/07 02:31:48;;;;;;;2.88;1.60;;;6.70;99.90;;;;;;5098425;28;20295;-68
2021/11/07 02:34:19;;;;;;;1.80;1.70;;;6.70;99.90;;;;;;5096189;28;20334;-68
2021/11/07 02:36:52;;;;;;;3.10;1.60;;;6.80;99.90;;;;;;5098279;28;20244;-69
2021/11/07 02:39:25;;;;;;;1.63;1.50;;;6.80;99.90;;;;;;5095927;28;20662;-69
2021/11/07 02:42:01;;;;;;;1.90;1.80;;;6.90;99.90;;;;;;5097108;28;20230;-69
2021/11/07 02:44:36;;;;;;;2.45;1.95;;;6.90;99.90;;;;;;5105442;28;20239;-68
2021/11/07 02:47:09;;;;;;;2.15;1.95;;;6.90;99.90;;;;;;5102141;28;20302;-68
2021/11/07 02:49:41;;;;;;;3.67;2.15;;;6.80;99.90;;;;;;5091992;28;20254;-69
2021/11/07 02:52:15;;;;;;;3.58;2.00;;;6.90;99.90;;;;;;5101145;28;20291;-68
2021/11/07 02:54:47;;;;;;;2.40;2.20;;;6.90;99.90;;;;;;5106957;28;20298;-68
2021/11/07 02:57:21;;;;;;;3.58;2.20;;;6.90;99.90;;;;;;5106301;28;20634;-68
2021/11/07 02:59:57;;;;;;;2.30;2.00;;;6.90;99.90;;;;;;5108428;28;20297;-69
2021/11/07 03:02:29;;;;;;;2.40;1.83;;;6.90;99.90;;;;;;5100320;28;20271;-69
2021/11/07 03:05:02;;;;;;;2.60;2.40;;;6.90;99.90;;;;;;5099190;28;20790;-69
2021/11/07 03:07:34;;;;;;;1.80;1.60;;;6.80;99.90;;;;;;5094545;28;20570;-69
2021/11/07 03:10:07;;;;;;;2.05;1.85;;;6.90;99.90;;;;;;5100172;28;20260;-69
2021/11/07 03:12:38;;;;;;;1.80;1.70;;;6.80;99.90;;;;;;5108157;28;20303;-69
2021/11/07 03:15:12;;;;;;;2.15;1.75;;;6.70;99.90;;;;;;5100822;28;20231;-69
2021/11/07 03:17:44;;;;;;;2.55;1.38;;;6.70;99.90;;;;;;5107181;28;20226;-69
2021/11/07 03:20:15;;;;;;;2.55;1.60;;;6.70;99.90;;;;;;5109792;28;20246;-69
2021/11/07 03:22:49;;;;;;;1.73;1.63;;;6.70;99.90;;;;;;5094650;28;20312;-69
2021/11/07 03:25:21;;;;;;;1.88;1.60;;;6.70;99.90;;;;;;5105857;28;20250;-70
2021/11/07 03:27:52;;;;;;;2.15;2.05;;;6.70;99.90;;;;;;5103756;28;20665;-69
2021/11/07 03:30:35;;;;;;;1.92;1.83;;;6.80;99.90;;;;;;5112527;28;20298;-69
2021/11/07 03:33:20;;;;;;;2.20;1.63;;;6.80;99.90;;;;;;5101044;28;20647;-70
2021/11/07 03:35:51;;;;;;;2.60;1.95;;;6.80;99.90;;;;;;5110050;28;20258;-68
2021/11/07 03:38:24;;;;;;;2.67;1.80;;;6.90;99.90;;;;;;5113674;28;20208;-68
2021/11/07 03:40:55;;;;;;;1.45;1.35;;;6.90;99.90;;;;;;5101741;28;20705;-68
2021/11/07 03:43:28;;;;;;;2.10;1.90;;;6.80;99.90;;;;;;5102033;28;20703;-69
2021/11/07 03:46:00;;;;;;;1.73;1.50;;;6.80;99.90;;;;;;5107393;28;20331;-68
2021/11/07 03:48:31;;;;;;;1.52;1.42;;;6.80;99.90;;;;;;5102012;28;20654;-68
2021/11/07 03:51:04;;;;;;;1.80;1.38;;;6.80;99.90;;;;;;5105556;28;20273;-68
2021/11/07 03:53:37;;;;;;;1.45;1.30;;;6.70;99.90;;;;;;5101101;28;20303;-68
2021/11/07 03:56:08;;;;;;;1.52;1.42;;;6.60;99.90;;;;;;5099695;28;20806;-70
2021/11/07 03:58:39;;;;;;;1.85;1.75;;;6.60;99.90;;;;;;5101371;28;20216;-69
2021/11/07 04:01:13;;;;;;;1.73;1.63;;;6.70;99.90;;;;;;5099977;28;20303;-69
2021/11/07 04:03:44;;;;;;;2.55;2.35;;;6.70;99.90;;;;;;5101549;28;20304;-69
2021/11/07 04:06:16;;;;;;;2.50;2.30;;;6.60;99.90;;;;;;5098930;28;20224;-69
2021/11/07 04:08:49;;;;;;;2.78;2.58;;;6.60;99.90;;;;;;5111038;28;20306;-69
2021/11/07 04:11:21;;;;;;;2.08;1.90;;;6.70;99.90;;;;;;5106459;28;20240;-69
2021/11/07 04:13:52;;;;;;;2.50;2.30;;;6.70;99.90;;;;;;5105858;28;20620;-69
2021/11/07 04:16:23;;;;;;;3.35;2.65;;;6.60;99.90;;;;;;5108371;28;20294;-69
2021/11/07 04:18:54;;;;;;;2.72;2.20;;;6.70;99.90;;;;;;5092285;28;20616;-69
2021/11/07 04:21:25;;;;;;;2.92;2.72;;;6.70;99.90;;;;;;5091008;28;20247;-69
2021/11/07 04:24:02;;;;;;;2.72;2.53;;;6.70;99.90;;;;;;5092725;28;20216;-69
2021/11/07 04:26:33;;;;;;;2.35;1.70;;;6.70;99.90;;;;;;5090953;28;20269;-69
2021/11/07 04:29:04;;;;;;;2.10;2.00;;;6.70;99.90;;;;;;5100823;28;20247;-69
2021/11/07 04:31:35;;;;;;;2.20;2.05;;;6.80;99.90;;;;;;5106945;28;20243;-69
2021/11/07 04:34:06;;;;;;;2.55;1.92;;;6.90;99.90;;;;;;5102449;28;20291;-69
2021/11/07 04:36:37;;;;;;;2.50;2.30;;;6.90;99.90;;;;;;5110843;28;20242;-69
2021/11/07 04:39:10;;;;;;;2.30;1.77;;;6.90;99.90;;;;;;5108564;28;20316;-68
2021/11/07 04:41:41;;;;;;;1.80;1.70;;;7.00;99.90;;;;;;5090913;28;20305;-69
2021/11/07 04:44:12;;;;;;;1.75;1.65;;;7.00;99.90;;;;;;5106996;28;20291;-69
2021/11/07 04:46:43;;;;;;;1.75;1.60;;;7.00;99.90;;;;;;5107531;28;20678;-69
2021/11/07 04:49:14;;;;;;;3.78;1.90;;;7.00;99.90;;;;;;5105165;27;20212;-70
2021/11/07 04:51:46;;;;;;;2.05;1.85;;;7.00;99.90;;;;;;5103384;28;20247;-70
2021/11/07 04:54:18;;;;;;;2.30;2.05;;;6.90;99.90;;;;;;5102884;28;20299;-69
2021/11/07 04:56:49;;;;;;;2.38;2.17;;;6.90;99.90;;;;;;5096291;28;20291;-70
2021/11/07 04:59:20;;;;;;;2.40;2.17;;;6.70;99.90;;;;;;5097031;28;20222;-70
2021/11/07 05:01:51;;;;;;;3.40;2.00;;;6.70;99.90;;;;;;5110387;28;20294;-69
2021/11/07 05:04:22;;;;;;;1.90;1.80;;;6.70;99.90;;;;;;5111521;28;20211;-69
2021/11/07 05:06:53;;;;;;;2.70;2.08;;;6.60;99.90;;;;;;5088069;28;20320;-69
2021/11/07 05:09:26;;;;;;;1.92;1.83;;;6.50;99.90;;;;;;5091697;28;20243;-70
2021/11/07 05:12:01;;;;;;;2.55;1.98;;;6.50;99.90;;;;;;5098557;28;20223;-70
2021/11/07 05:14:32;;;;;;;2.55;2.33;;;6.60;99.90;;;;;;5098706;28;20579;-70
2021/11/07 05:17:04;;;;;;;2.67;2.08;;;6.50;99.90;;;;;;5098359;28;20212;-70
2021/11/07 05:19:36;;;;;;;3.88;2.22;;;6.50;99.90;;;;;;5096778;28;20277;-70
2021/11/07 05:22:07;;;;;;;2.58;2.30;;;6.50;99.90;;;;;;5099516;28;20243;-70
2021/11/07 05:24:40;;;;;;;6.80;3.78;;;6.50;99.90;;;;;;5108238;28;20614;-70
2021/11/07 05:27:11;;;;;;;2.90;2.65;;;6.50;99.90;;;;;;5097075;28;20251;-70
2021/11/07 05:29:42;;;;;;;2.75;2.58;;;6.50;99.90;;;;;;5109742;28;20704;-70
2021/11/07 05:32:13;;;;;;;2.78;2.35;;;6.40;99.90;;;;;;5098236;28;20668;-71
2021/11/07 05:34:45;;;;;;;3.58;2.90;;;6.50;99.90;;;;;;5088959;28;20690;-70
2021/11/07 05:37:16;;;;;;;2.72;2.25;;;6.40;99.90;;;;;;5104515;28;20253;-70
2021/11/07 05:39:49;;;;;;;2.97;2.78;;;6.40;99.90;;;;;;5100403;28;20211;-70
2021/11/07 05:42:20;;;;;;;4.00;2.55;;;6.30;99.90;;;;;;5110856;28;20622;-70
2021/11/07 05:44:51;;;;;;;3.95;2.30;;;6.30;99.90;;;;;;5099459;28;20295;-70
2021/11/07 05:47:22;;;;;;;3.03;2.33;;;6.30;99.90;;;;;;5104540;28;20319;-70
2021/11/07 05:49:53;;;;;;;3.80;3.38;;;6.40;99.90;;;;;;5107739;28;20250;-70
2021/11/07 05:52:24;;;;;;;3.55;3.10;;;6.30;99.90;;;;;;5096405;28;20248;-71
2021/11/07 05:54:58;;;;;;;3.72;3.42;;;6.30;99.90;;;;;;5101756;28;20246;-70
2021/11/07 05:57:29;;;;;;;3.53;3.10;;;6.30;99.90;;;;;;5109036;28;20302;-70
2021/11/07 06:00:00;;;;;;;4.03;3.20;;;6.40;99.90;;;;;;5097984;28;20212;-70
2021/11/07 06:02:32;;;;;;;4.40;3.50;;;6.50;99.90;;;;;;5103665;28;20263;-70
2021/11/07 06:05:03;;;;;;;3.13;2.38;;;6.50;99.90;;;;;;5102111;28;20286;-70
2021/11/07 06:07:34;;;;;;;3.38;3.08;;;6.50;99.90;;;;;;5099142;28;20317;-70
2021/11/07 06:10:08;;;;;;;3.85;3.28;;;6.50;99.90;;;;;;5102535;28;20216;-71
2021/11/07 06:12:39;;;;;;;3.95;3.28;;;6.50;99.90;;;;;;5098774;28;20716;-70
2021/11/07 06:15:10;;;;;;;2.95;2.65;;;6.60;99.90;;;;;;5091336;28;20307;-70
2021/11/07 06:17:42;;;;;;;3.47;2.75;;;6.60;99.90;;;;;;5099198;28;20247;-71
2021/11/07 06:20:13;;;;;;;3.95;3.20;;;6.60;99.90;;;;;;5092150;28;20223;-70
2021/11/07 06:22:44;;;;;;;3.60;2.80;;;6.70;99.90;;;;;;5098571;28;20280;-71
2021/11/07 06:25:16;;;;;;;2.95;2.30;;;6.70;99.90;;;;;;5090769;28;20622;-71
2021/11/07 06:27:48;;;;;;;5.78;3.00;;;6.70;99.90;;;;;;5097017;28;20223;-71
2021/11/07 06:30:19;;;;;;;3.15;2.95;;;6.70;99.90;;;;;;5088544;28;20685;-71
2021/11/07 06:32:50;;;;;;;3.10;2.80;;;6.80;99.90;;;;;;5089244;28;20212;-70
2021/11/07 06:35:21;;;;;;;3.70;3.25;;;6.90;99.90;;;;;;5102611;28;20243;-70
2021/11/07 06:37:53;;;;;;;5.00;2.80;;;6.90;99.90;;;;;;5104584;28;20578;-70
2021/11/07 06:40:25;;;;;;;5.10;3.75;;;6.90;99.90;;;;;;5102826;28;20302;-70
2021/11/07 06:42:57;;;;;;;4.72;3.25;;;6.90;99.90;;;;;;5098321;28;20222;-70
2021/11/07 06:45:28;;;;;;;3.10;2.90;;;7.00;99.90;;;;;;5108290;28;20251;-70
2021/11/07 06:47:59;;;;;;;3.78;2.55;;;6.90;99.90;;;;;;5096021;28;20306;-70
2021/11/07 06:50:30;;;;;;;3.25;2.60;;;6.90;99.90;;;;;;5099383;28;20635;-70
2021/11/07 06:53:01;;;;;;;3.10;2.80;;;6.90;99.90;;;;;;5106131;28;20239;-70
2021/11/07 06:55:34;;;;;;;4.10;3.10;;;6.80;99.90;;;;;;5094528;28;20266;-70
2021/11/07 06:58:06;;;;;;;3.58;3.28;;;6.80;99.90;;;;;;5101562;28;20236;-71
2021/11/07 07:00:37;;;;;;;4.10;3.42;;;6.80;99.90;;;;;;5108711;28;20261;-70
2021/11/07 07:03:08;;;;;;;4.45;3.10;;;6.80;99.90;;;;;;5092999;28;20231;-70
2021/11/07 07:05:39;;;;;;;3.45;3.15;;;6.80;99.90;;;;;;5100279;28;20287;-70
2021/11/07 07:08:13;;;;;;;3.22;2.85;;;6.70;99.90;;;;;;5095716;28;20667;-70
2021/11/07 07:10:52;;;;;;;2.85;2.55;;;6.70;99.90;;;;;;5107992;28;20220;-71
2021/11/07 07:13:28;;;;;;;4.10;2.30;;;6.70;99.90;;;;;;5095882;28;20211;-70
2021/11/07 07:16:10;;;;;;;4.38;2.40;;;6.60;99.90;;;;;;5097060;28;20219;-69
2021/11/07 07:18:52;;;;;;;3.13;2.83;;;6.70;99.90;;;;;;5099393;28;20250;-69
2021/11/07 07:21:35;;;;;;;2.63;2.42;;;6.80;99.90;;;;;;5105111;28;20705;-71
2021/11/07 07:30:09;;;;;;;2.67;1.40;;;6.70;99.90;;;;;;5036961;28;20308;-70
2021/11/07 07:35:28;;;;;;;1.70;1.42;;;6.70;99.90;;;;;;5096489;28;20323;-70
2021/11/07 07:37:59;;;;;;;4.60;1.60;;;6.70;99.90;;;;;;5097814;28;20266;-70
2021/11/07 07:40:30;;;;;;;2.05;1.10;;;6.70;99.90;;;;;;5101165;28;20638;-70
2021/11/07 07:43:03;;;;;;;2.03;1.40;;;6.70;99.90;;;;;;5106666;28;20262;-69
2021/11/07 07:45:34;;;;;;;2.25;1.10;;;6.70;99.90;;;;;;5100016;28;20259;-70
2021/11/07 07:48:06;;;;;;;1.40;1.30;;;6.70;99.90;;;;;;5108524;28;20300;-71
2021/11/07 07:50:40;;;;;;;1.42;1.33;;;6.70;99.90;;;;;;5099048;28;20252;-70
2021/11/07 07:53:12;;;;;;;3.05;1.50;;;6.60;99.90;;;;;;5097801;28;20296;-70
2021/11/07 07:55:44;;;;;;;2.00;1.55;;;6.70;99.90;;;;;;5097971;28;20250;-69
2021/11/07 07:58:16;;;;;;;1.73;1.23;;;6.60;99.90;;;;;;5085718;28;20299;-70
2021/11/07 08:00:47;;;;;;;4.40;1.70;;;6.60;99.90;;;;;;5096459;28;20302;-70
2021/11/07 08:03:19;;;;;;;2.30;1.50;;;6.60;99.90;;;;;;5096984;28;20232;-70
2021/11/07 08:05:50;;;;;;;3.65;1.85;;;6.50;99.90;;;;;;5091622;28;20248;-70
2021/11/07 08:08:21;;;;;;;1.20;1.10;;;6.40;99.90;;;;;;5105111;28;20220;-70
2021/11/07 08:10:52;;;;;;;2.10;1.55;;;6.40;99.90;;;;;;5104992;28;20251;-70
2021/11/07 08:13:25;;;;;;;1.63;1.10;;;6.40;99.90;;;;;;5097018;28;20243;-70
2021/11/07 08:15:56;;;;;;;1.92;1.40;;;6.30;99.90;;;;;;5102795;28;20243;-71
2021/11/07 08:18:27;;;;;;;3.47;1.42;;;6.40;99.90;;;;;;5098805;28;20247;-70
2021/11/07 08:20:58;;;;;;;5.38;1.60;;;6.40;99.90;;;;;;5090901;28;20247;-70
2021/11/07 08:23:29;;;;;;;1.90;1.15;;;6.40;99.90;;;;;;5097563;28;20208;-70
2021/11/07 08:26:02;;;;;;;1.73;1.20;;;6.40;99.90;;;;;;5093444;28;20281;-70
2021/11/07 08:28:35;;;;;;;1.88;1.20;;;6.30;99.90;;;;;;5092259;28;20310;-70
2021/11/07 08:31:08;;;;;;;1.45;1.35;;;6.30;99.90;;;;;;5100795;28;20636;-70
2021/11/07 08:33:39;;;;;;;3.58;1.42;;;6.30;99.90;;;;;;5091655;28;20293;-70
2021/11/07 08:36:13;;;;;;;4.28;2.35;;;6.30;99.90;;;;;;5093223;28;20307;-70
2021/11/07 08:38:48;;;;;;;1.80;1.20;;;6.40;99.90;;;;;;5108795;28;20258;-70
2021/11/07 08:41:21;;;;;;;1.50;1.10;;;6.30;99.90;;;;;;5097218;28;20212;-70
2021/11/07 09:01:23;;;;;;;1.58;1.15;;;6.20;99.90;;;;;;5107391;28;20294;-71
2021/11/07 09:03:57;;;;;;;2.05;1.85;;;6.20;99.90;;;;;;5091112;28;20235;-68
2021/11/07 09:06:44;;;;;;;1.65;1.10;;;6.20;99.90;;;;;;5094876;28;20222;-70
2021/11/07 09:09:16;;;;;;;0.98;0.98;;;6.20;99.90;;;;;;5100476;28;20844;-70
2021/11/07 09:11:52;;;;;;;1.00;0.90;;;6.20;99.90;;;;;;5088542;28;20208;-70
2021/11/07 09:14:25;;;;;;;1.70;1.20;;;6.30;99.90;;;;;;5095299;28;20264;-70
2021/11/07 09:16:59;;;;;;;1.75;1.65;;;6.40;99.90;;;;;;5099676;28;20242;-69
2021/11/07 09:19:32;;;;;;;2.85;1.33;;;6.40;99.90;;;;;;5103931;28;20201;-70
2021/11/07 09:22:08;;;;;;;1.38;1.00;;;6.50;99.90;;;;;;5093357;28;20212;-71
2021/11/07 09:24:43;;;;;;;1.15;0.70;;;6.50;99.90;;;;;;5099612;28;20298;-70
2021/11/07 09:27:21;;;;;;;1.52;1.10;;;6.60;99.90;;;;;;5090086;28;20294;-70
2021/11/07 09:30:01;;;;;;;2.20;1.00;;;6.60;99.90;;;;;;5097841;28;20223;-70
2021/11/07 09:32:44;;;;;;;1.63;0.90;;;6.60;99.90;;;;;;5110934;28;20234;-70
2021/11/07 09:38:15;;;;;;;1.30;1.20;;;6.70;99.90;;;;;;5075574;28;20255;-71
2021/11/07 09:40:48;;;;;;;1.30;1.20;;;6.70;99.90;;;;;;5107135;28;20235;-70
2021/11/07 09:43:39;;;;;;;1.20;1.10;;;6.70;99.90;;;;;;5111291;28;20321;-70
2021/11/07 09:46:18;;;;;;;2.90;1.38;;;6.80;99.90;;;;;;5105384;28;20696;-70
2021/11/07 09:48:55;;;;;;;1.30;1.20;;;6.90;99.90;;;;;;5105187;27;20282;-77
2021/11/07 09:51:32;;;;;;;3.15;1.20;;;6.90;99.90;;;;;;5111417;28;20227;-75
2021/11/07 09:54:05;;;;;;;1.35;1.25;;;7.00;99.90;;;;;;5096091;28;20243;-74
2021/11/07 09:56:36;;;;;;;1.60;1.50;;;6.90;99.90;;;;;;5106094;28;20307;-71
2021/11/07 09:59:09;;;;;;;1.20;1.10;;;6.90;99.90;;;;;;5101781;28;20259;-74
2021/11/07 10:01:40;;;;;;;1.13;1.02;;;6.90;99.90;;;;;;5102372;28;20299;-76
2021/11/07 10:04:13;;;;;;;1.10;1.00;;;6.90;99.90;;;;;;5100885;28;20267;-73
2021/11/07 10:06:46;;;;;;;1.42;1.23;;;7.00;99.90;;;;;;5097851;28;20208;-72
2021/11/07 10:09:33;;;;;;;1.85;1.40;;;7.00;99.90;;;;;;5106302;28;20231;-70
2021/11/07 10:12:09;;;;;;;2.15;0.90;;;7.00;99.90;;;;;;5104495;28;20248;-71
2021/11/07 10:14:45;;;;;;;3.00;1.10;;;7.00;99.90;;;;;;5105432;28;20248;-71
2021/11/07 10:17:35;;;;;;;1.20;1.10;;;7.00;99.90;;;;;;5096019;28;20247;-71
2021/11/07 10:20:22;;;;;;;0.95;0.90;;;7.00;99.90;;;;;;5090708;28;20638;-71
2021/11/07 10:22:59;;;;;;;1.55;0.90;;;7.00;99.90;;;;;;5101602;28;20223;-71
2021/11/07 10:25:37;;;;;;;0.90;0.90;;;7.00;99.90;;;;;;5098309;28;20246;-74
2021/11/07 10:28:23;;;;;;;1.33;1.23;;;7.00;99.90;;;;;;5100714;28;20253;-72
2021/11/07 10:31:13;;;;;;;1.50;1.15;;;7.00;99.90;;;;;;5098877;28;20219;-75
2021/11/07 10:37:07;;;;;;;0.95;0.95;;;7.00;99.90;;;;;;5094427;28;20617;-71
2021/11/07 10:39:58;;;;;;;1.35;1.10;;;7.00;99.90;;;;;;5110447;28;20696;-77
2021/11/07 10:42:48;;;;;;;1.02;1.02;;;6.90;99.90;;;;;;5111926;28;20247;-71
2021/11/07 10:45:24;;;;;;;1.98;1.10;;;6.90;99.90;;;;;;5098354;28;20247;-71
2021/11/07 10:53:53;;;;;;;0.95;0.95;;;6.90;99.90;;;;;;5097754;28;20298;-73
2021/11/07 10:56:24;;;;;;;1.50;1.00;;;6.90;99.90;;;;;;5087711;28;20244;-71
2021/11/07 10:58:55;;;;;;;1.15;1.05;;;6.90;99.90;;;;;;5090119;28;20212;-74
2021/11/07 11:01:27;;;;;;;5.55;1.17;;;6.90;99.90;;;;;;5108694;28;20208;-71
2021/11/07 11:04:02;;;;;;;1.40;1.30;;;6.90;99.90;;;;;;5098092;28;20264;-73
2021/11/07 11:06:33;;;;;;;1.33;1.10;;;6.90;99.90;;;;;;5104866;28;20212;-72
2021/11/07 11:09:16;;;;;;;2.72;0.80;;;6.80;99.90;;;;;;5099441;28;20239;-71
2021/11/07 11:11:49;;;;;;;1.95;1.10;;;6.80;99.90;;;;;;5110766;28;20577;-71
2021/11/07 11:14:24;;;;;;;1.05;0.80;;;6.70;99.90;;;;;;5094897;28;20208;-71
2021/11/07 11:16:58;;;;;;;1.38;1.20;;;6.70;99.90;;;;;;5099066;28;20642;-70
2021/11/07 11:19:48;;;;;;;1.73;0.77;;;6.60;99.90;;;;;;5096492;28;20295;-71
2021/11/07 11:28:03;;;;;;;1.45;0.65;;;6.50;99.90;;;;;;5098126;28;20203;-73
2021/11/07 11:30:46;;;;;;;0.80;0.80;;;6.50;99.90;;;;;;5108865;28;20330;-72
2021/11/07 11:33:23;;;;;;;1.60;1.33;;;6.50;99.90;;;;;;5101431;28;20615;-71
2021/11/07 11:36:01;;;;;;;0.73;0.65;;;6.50;99.90;;;;;;5108322;28;20302;-70
2021/11/07 11:38:37;;;;;;;0.82;0.82;;;6.50;99.90;;;;;;5111570;28;20272;-73
2021/11/07 11:41:12;;;;;;;1.33;1.10;;;6.60;99.90;;;;;;5100205;28;20247;-70
2021/11/07 11:43:47;;;;;;;1.33;1.23;;;6.60;99.90;;;;;;5097711;28;20370;-70
2021/11/07 11:46:26;;;;;;;0.68;0.68;;;6.60;99.90;;;;;;5100057;28;20207;-70
2021/11/07 11:49:25;;;;;;;1.13;0.80;;;6.60;99.90;;;;;;5096749;28;20212;-70
2021/11/07 11:57:49;;;;;;;2.38;0.70;;;6.80;99.90;;;;;;5059357;28;20299;-71
2021/11/07 12:03:16;;;;;;;0.60;0.60;;;6.70;99.90;;;;;;5101387;27;20749;-70
2021/11/07 12:05:53;;;;;;;0.75;0.75;;;6.70;99.90;;;;;;5108099;28;20211;-73
2021/11/07 12:08:32;;;;;;;0.77;0.68;;;6.70;99.90;;;;;;5101455;28;20247;-78
2021/11/07 12:11:27;;;;;;;0.82;0.82;;;6.70;99.90;;;;;;5103268;28;20278;-71
2021/11/07 12:14:10;;;;;;;1.25;1.15;;;6.80;99.90;;;;;;5104900;27;20204;-71
2021/11/07 12:16:54;;;;;;;0.60;0.60;;;6.80;99.90;;;;;;5101094;28;20268;-71
2021/11/07 12:19:37;;;;;;;0.90;0.70;;;6.70;99.90;;;;;;5108972;28;20307;-73
2021/11/07 12:22:14;;;;;;;0.50;0.50;;;6.70;99.90;;;;;;5104639;28;20212;-74
2021/11/07 12:25:16;;;;;;;1.23;0.85;;;6.70;99.90;;;;;;5099698;28;20208;-69
2021/11/07 12:27:51;;;;;;;0.80;0.60;;;6.70;99.90;;;;;;5100262;28;20215;-71
2021/11/07 12:30:31;;;;;;;0.70;0.70;;;6.70;99.90;;;;;;5098982;28;20281;-71
2021/11/07 12:33:08;;;;;;;0.98;0.98;;;6.70;99.90;;;;;;5096070;28;20307;-71
2021/11/07 12:35:43;;;;;;;0.75;0.73;;;6.70;99.90;;;;;;5103850;28;20294;-74
2021/11/07 12:41:21;;;;;;;1.08;1.00;;;6.60;99.90;;;;;;5100856;28;20281;-73
2021/11/07 12:43:59;;;;;;;3.85;0.90;;;6.50;99.90;;;;;;5093891;28;20243;-70
2021/11/07 12:46:40;;;;;;;2.55;0.70;;;6.50;99.90;;;;;;5093374;28;20277;-70
2021/11/07 12:49:23;;;;;;;1.33;0.80;;;6.40;99.90;;;;;;5104943;28;20212;-70
2021/11/07 12:51:57;;;;;;;0.70;0.70;;;6.30;99.90;;;;;;5113414;27;20251;-70
2021/11/07 12:54:34;;;;;;;0.88;0.75;;;6.20;99.90;;;;;;5112206;28;20247;-74
2021/11/07 12:57:07;;;;;;;2.05;1.05;;;6.20;99.90;;;;;;5102226;28;20256;-71
2021/11/07 12:59:40;;;;;;;1.10;1.00;;;6.20;99.90;;;;;;5100369;28;20220;-80
2021/11/07 13:02:25;;;;;;;0.80;0.70;;;6.10;99.90;;;;;;5112411;28;20253;-71
2021/11/07 13:05:00;;;;;;;0.70;0.63;;;6.10;99.90;;;;;;5110588;28;20212;-73
2021/11/07 13:07:35;;;;;;;1.45;0.82;;;6.10;99.90;;;;;;5098592;28;20208;-71
2021/11/07 13:10:10;;;;;;;4.15;0.80;;;6.20;99.90;;;;;;5100348;28;20250;-74
2021/11/07 13:12:44;;;;;;;0.65;0.65;;;6.20;99.90;;;;;;5112057;28;20251;-71
2021/11/07 13:15:41;;;;;;;1.10;0.60;;;6.30;99.90;;;;;;5097287;28;20274;-76
2021/11/07 13:27:09;;;;;;;1.05;0.90;;;6.50;99.90;;;;;;5101575;28;20243;-70
2021/11/07 13:29:46;;;;;;;1.00;0.80;;;6.50;99.90;;;;;;5100983;28;20255;-70
2021/11/07 13:32:32;;;;;;;0.90;0.90;;;6.50;99.90;;;;;;5092544;28;20311;-72
2021/11/07 13:35:11;;;;;;;1.30;1.20;;;6.50;99.90;;;;;;5098316;28;20265;-70
2021/11/07 13:37:52;;;;;;;1.20;1.05;;;6.40;99.90;;;;;;5091291;28;20247;-72
2021/11/07 13:40:28;;;;;;;3.63;1.05;;;6.40;99.90;;;;;;5096480;28;20244;-70
2021/11/07 13:43:04;;;;;;;1.00;1.00;;;6.40;99.90;;;;;;5100547;28;20208;-71
2021/11/07 13:45:39;;;;;;;1.73;1.05;;;6.40;99.90;;;;;;5099721;28;20610;-71
2021/11/07 13:48:18;;;;;;;1.25;1.15;;;6.40;99.90;;;;;;5099825;28;20301;-71
2021/11/07 13:50:52;;;;;;;1.95;1.00;;;6.40;99.90;;;;;;5094002;28;20606;-72
2021/11/07 13:53:25;;;;;;;1.20;0.80;;;6.40;99.90;;;;;;5095515;28;20254;-73
2021/11/07 13:55:58;;;;;;;2.28;1.25;;;6.30;99.90;;;;;;5102386;28;20212;-72
2021/11/07 13:58:30;;;;;;;0.98;0.85;;;6.30;99.90;;;;;;5104146;28;20254;-77
2021/11/07 14:01:05;;;;;;;0.95;0.95;;;6.30;99.90;;;;;;5100031;28;20247;-71
2021/11/07 14:03:37;;;;;;;3.20;1.00;;;6.40;99.90;;;;;;5104223;28;20263;-71
2021/11/07 14:06:13;;;;;;;1.15;1.05;;;6.40;99.90;;;;;;5091310;28;20248;-75
2021/11/07 14:08:45;;;;;;;1.30;1.20;;;6.30;99.90;;;;;;5111061;28;20591;-73
2021/11/07 14:11:18;;;;;;;1.30;1.20;;;6.30;99.90;;;;;;5103117;28;20273;-74
2021/11/07 14:13:51;;;;;;;1.90;1.67;;;6.30;99.90;;;;;;5108730;28;20224;-73
2021/11/07 14:16:31;;;;;;;1.65;1.30;;;6.30;99.90;;;;;;5104032;28;20262;-71
2021/11/07 14:19:07;;;;;;;1.67;1.33;;;6.30;99.90;;;;;;5095003;28;20302;-71
2021/11/07 14:21:42;;;;;;;1.00;0.82;;;6.30;99.90;;;;;;5097551;28;20326;-70
2021/11/07 14:24:16;;;;;;;1.10;1.00;;;6.30;99.90;;;;;;5104289;28;20291;-74
2021/11/07 14:26:52;;;;;;;1.58;1.10;;;6.30;99.90;;;;;;5105325;28;20353;-70
2021/11/07 14:29:30;;;;;;;1.10;1.05;;;6.40;99.90;;;;;;5094881;28;20260;-71
2021/11/07 14:32:13;;;;;;;2.45;1.30;;;6.40;99.90;;;;;;5108845;28;20223;-75
2021/11/07 14:35:00;;;;;;;1.50;1.15;;;6.50;99.90;;;;;;5095743;28;20239;-70
2021/11/07 14:37:38;;;;;;;2.22;1.60;;;6.50;99.90;;;;;;5096805;28;20216;-71
2021/11/07 14:40:15;;;;;;;1.23;1.10;;;6.50;99.90;;;;;;5095339;28;20265;-71
2021/11/07 14:42:57;;;;;;;1.60;1.50;;;6.50;99.90;;;;;;5089190;28;20220;-77
2021/11/07 14:45:39;;;;;;;3.58;1.95;;;6.50;99.90;;;;;;5101156;28;20216;-70